createdAt,value
2018-11-06T00:00:15.405Z,24.47
2018-11-06T00:05:15.404Z,24.17
2018-11-06T00:10:14.176Z,25.07
2018-11-06T00:15:12.889Z,23.90
2018-11-06T00:20:12.807Z,22.93
2018-11-06T00:25:12.480Z,26.80
2018-11-06T00:30:12.528Z,24.33
2018-11-06T00:35:12.444Z,24.27
2018-11-06T00:40:11.196Z,26.13
2018-11-06T00:45:12.112Z,24.43
2018-11-06T00:50:11.664Z,26.03
2018-11-06T00:55:10.536Z,22.03
2018-11-06T01:00:11.493Z,25.60
2018-11-06T01:05:11.335Z,27.10
2018-11-06T01:10:10.536Z,29.17
2018-11-06T01:15:11.192Z,27.77
2018-11-06T01:20:12.140Z,30.00
2018-11-06T01:25:11.556Z,26.40
2018-11-06T01:30:13.781Z,25.87
2018-11-06T01:35:13.268Z,24.50
2018-11-06T01:40:13.514Z,24.07
2018-11-06T01:45:13.432Z,26.10
2018-11-06T01:50:14.401Z,28.10
2018-11-06T01:55:13.216Z,23.43
2018-11-06T02:00:14.920Z,25.07
2018-11-06T02:05:14.704Z,21.23
2018-11-06T02:10:14.335Z,29.00
2018-11-06T02:15:13.075Z,22.17
2018-11-06T02:20:12.565Z,21.83
2018-11-06T02:25:11.664Z,23.90
2018-11-06T02:30:12.303Z,26.13
2018-11-06T02:35:11.036Z,32.43
2018-11-06T02:40:11.569Z,29.70
2018-11-06T02:45:11.093Z,28.80
2018-11-06T02:50:10.719Z,24.07
2018-11-06T02:55:09.930Z,28.00
2018-11-06T03:00:11.910Z,25.60
2018-11-06T03:05:11.120Z,23.00
2018-11-06T03:10:11.013Z,25.30
2018-11-06T03:15:10.792Z,30.63
2018-11-06T03:20:10.549Z,31.87
2018-11-06T03:25:09.234Z,24.40
2018-11-06T03:30:10.560Z,30.10
2018-11-06T03:35:10.721Z,31.60
2018-11-06T03:40:10.240Z,31.00
2018-11-06T03:45:09.865Z,26.40
2018-11-06T03:50:09.908Z,28.67
2018-11-06T03:55:08.903Z,28.73
2018-11-06T04:00:11.204Z,22.30
2018-11-06T04:05:10.447Z,18.33
2018-11-06T04:10:10.135Z,24.03
2018-11-06T04:15:09.196Z,18.70
2018-11-06T04:20:08.463Z,24.73
2018-11-06T04:25:07.480Z,22.67
2018-11-06T04:30:08.360Z,20.57
2018-11-06T04:35:07.157Z,20.93
2018-11-06T04:40:07.445Z,17.77
2018-11-06T04:45:06.583Z,18.47
2018-11-06T04:50:05.642Z,21.57
2018-11-06T04:55:04.762Z,21.53
2018-11-06T05:00:03.539Z,17.00
2018-11-06T05:05:02.262Z,18.33
2018-11-06T05:10:01.000Z,21.27
2018-11-06T05:14:59.719Z,22.43
2018-11-06T05:19:58.445Z,19.80
2018-11-06T05:24:57.176Z,21.33
2018-11-06T05:29:55.919Z,17.37
2018-11-06T05:34:54.722Z,18.83
2018-11-06T05:40:04.706Z,20.97
2018-11-06T05:45:03.410Z,18.13
2018-11-06T05:50:02.124Z,20.30
2018-11-06T05:55:00.849Z,19.40
2018-11-06T05:59:59.559Z,16.90
2018-11-06T06:04:58.285Z,18.47
2018-11-06T06:09:57.022Z,18.93
2018-11-06T06:14:55.734Z,15.70
2018-11-06T06:19:54.459Z,15.53
2018-11-06T06:24:53.294Z,17.33
2018-11-06T06:29:51.976Z,18.87
2018-11-06T06:34:50.743Z,14.80
2018-11-06T06:39:49.711Z,15.53
2018-11-06T06:44:48.423Z,16.77
2018-11-06T06:49:47.139Z,16.57
2018-11-06T06:54:46.021Z,19.87
2018-11-06T06:59:44.691Z,21.10
2018-11-06T07:04:43.423Z,19.70
2018-11-06T07:09:42.167Z,17.07
2018-11-06T07:14:40.910Z,19.00
2018-11-06T07:19:39.657Z,18.97
2018-11-06T07:24:38.495Z,18.83
2018-11-06T07:29:37.216Z,16.40
2018-11-06T07:34:36.035Z,17.23
2018-11-06T07:39:34.730Z,15.60
2018-11-06T07:44:33.464Z,17.23
2018-11-06T07:49:32.197Z,17.30
2018-11-06T07:54:30.938Z,18.80
2018-11-06T07:59:29.676Z,23.00
2018-11-06T08:04:28.495Z,16.60
2018-11-06T08:09:27.228Z,20.30
2018-11-06T08:14:25.979Z,19.37
2018-11-06T08:19:24.679Z,20.27
2018-11-06T08:24:23.428Z,13.60
2018-11-06T08:29:22.180Z,22.37
2018-11-06T08:34:20.910Z,22.00
2018-11-06T08:39:19.651Z,14.40
2018-11-06T08:44:18.414Z,21.43
2018-11-06T08:49:17.120Z,14.90
2018-11-06T08:54:15.858Z,16.63
2018-11-06T08:59:14.587Z,15.60
2018-11-06T09:04:13.324Z,18.43
2018-11-06T09:09:12.120Z,16.57
2018-11-06T09:14:10.863Z,23.37
2018-11-06T09:19:09.691Z,21.87
2018-11-06T09:24:08.420Z,22.60
2018-11-06T09:29:07.172Z,20.10
2018-11-06T09:34:05.900Z,14.00
2018-11-06T09:39:07.958Z,15.20
2018-11-06T09:44:06.936Z,18.73
2018-11-06T09:49:06.253Z,16.23
2018-11-06T09:54:05.619Z,16.57
2018-11-06T09:59:04.380Z,19.30
2018-11-06T10:04:03.118Z,18.83
2018-11-06T10:09:01.836Z,20.90
2018-11-06T10:14:00.664Z,17.50
2018-11-06T10:18:59.388Z,22.03
2018-11-06T10:23:58.141Z,21.70
2018-11-06T10:28:56.895Z,13.77
2018-11-06T10:33:55.596Z,14.87
2018-11-06T10:38:54.354Z,18.47
2018-11-06T10:43:53.080Z,17.17
2018-11-06T10:48:52.032Z,19.97
2018-11-06T10:53:50.779Z,14.30
2018-11-06T10:58:49.524Z,23.30
2018-11-06T11:03:53.581Z,21.67
2018-11-06T11:08:52.313Z,17.00
2018-11-06T11:13:51.054Z,15.10
2018-11-06T11:18:49.785Z,20.23
2018-11-06T11:23:48.532Z,24.37
2018-11-06T11:28:47.258Z,16.60
2018-11-06T11:33:46.138Z,25.60
2018-11-06T11:38:44.808Z,26.17
2018-11-06T11:43:43.528Z,23.20
2018-11-06T11:53:59.095Z,23.30
2018-11-06T11:58:58.611Z,20.33
2018-11-06T12:03:57.359Z,17.40
2018-11-06T12:08:56.113Z,23.83
2018-11-06T12:13:54.845Z,19.13
2018-11-06T12:18:53.599Z,17.33
2018-11-06T12:23:52.336Z,18.93
2018-11-06T12:28:51.168Z,19.27
2018-11-06T12:33:49.914Z,22.50
2018-11-06T12:38:48.637Z,18.23
2018-11-06T12:43:47.372Z,17.07
2018-11-06T12:48:46.125Z,16.40
2018-11-06T12:53:44.884Z,20.00
2018-11-06T12:58:43.652Z,20.17
2018-11-06T13:03:42.400Z,16.47
2018-11-06T13:08:41.120Z,16.03
2018-11-06T13:13:39.852Z,21.00
2018-11-06T13:18:38.596Z,22.00
2018-11-06T13:23:37.319Z,21.20
2018-11-06T13:28:36.136Z,19.17
2018-11-06T13:33:34.840Z,14.80
2018-11-06T13:38:33.576Z,20.13
2018-11-06T13:43:32.447Z,15.93
2018-11-06T13:48:31.024Z,15.70
2018-11-06T13:53:29.783Z,18.03
2018-11-06T13:58:28.620Z,15.60
2018-11-06T14:03:27.340Z,17.77
2018-11-06T14:08:26.137Z,19.03
2018-11-06T14:13:24.928Z,17.27
2018-11-06T14:18:23.815Z,18.20
2018-11-06T14:23:22.564Z,18.90
2018-11-06T14:28:21.385Z,14.33
2018-11-06T14:33:20.187Z,16.47
2018-11-06T14:38:18.960Z,17.73
2018-11-06T14:43:17.784Z,17.47
2018-11-06T14:48:16.581Z,16.43
2018-11-06T14:53:15.232Z,19.07
2018-11-06T14:58:13.993Z,18.20
2018-11-06T15:03:12.720Z,14.67
2018-11-06T15:08:11.527Z,15.97
2018-11-06T15:13:10.256Z,19.30
2018-11-06T15:18:09.004Z,16.80
2018-11-06T15:23:07.728Z,17.30
2018-11-06T15:28:06.466Z,18.30
2018-11-06T15:33:05.287Z,19.40
2018-11-06T15:38:04.199Z,21.07
2018-11-06T15:43:02.929Z,20.73
2018-11-06T15:48:01.731Z,18.97
2018-11-06T15:53:00.532Z,16.80
2018-11-06T15:57:59.272Z,19.03
2018-11-06T16:02:58.003Z,19.80
2018-11-06T16:07:56.712Z,19.63
2018-11-06T16:12:55.485Z,21.90
2018-11-06T16:17:54.284Z,16.00
2018-11-06T16:22:53.066Z,20.43
2018-11-06T16:27:51.752Z,23.30
2018-11-06T16:32:50.625Z,22.33
2018-11-06T16:37:49.641Z,18.03
2018-11-06T16:42:48.862Z,22.13
2018-11-06T16:47:48.505Z,22.97
2018-11-06T16:52:47.252Z,19.40
2018-11-06T16:57:46.308Z,21.60
2018-11-06T17:02:45.494Z,15.93
2018-11-06T17:07:44.634Z,21.57
2018-11-06T17:12:43.363Z,25.27
2018-11-06T17:17:42.530Z,24.30
2018-11-06T17:22:41.239Z,24.77
2018-11-06T17:27:40.160Z,24.20
2018-11-06T17:32:39.651Z,23.43
2018-11-06T17:37:38.996Z,25.97
2018-11-06T17:42:37.757Z,20.63
2018-11-06T17:47:36.608Z,20.50
2018-11-06T17:52:35.376Z,22.57
2018-11-06T17:57:34.312Z,26.80
2018-11-06T18:02:33.037Z,26.00
2018-11-06T18:07:31.773Z,22.00
2018-11-06T18:12:30.646Z,22.40
2018-11-06T18:17:29.408Z,20.40
2018-11-06T18:22:28.165Z,21.97
2018-11-06T18:27:26.900Z,22.60
2018-11-06T18:32:25.746Z,25.43
2018-11-06T18:37:24.570Z,25.77
2018-11-06T18:42:24.248Z,26.23
2018-11-06T18:47:23.062Z,23.80
2018-11-06T18:52:25.445Z,23.50
2018-11-06T18:57:24.140Z,21.43
2018-11-06T19:02:22.953Z,21.33
2018-11-06T19:07:21.706Z,15.40
2018-11-06T19:12:20.445Z,14.07
2018-11-06T19:17:19.193Z,25.07
2018-11-06T19:22:17.907Z,27.13
2018-11-06T19:27:17.463Z,27.93
2018-11-06T19:32:16.216Z,27.67
2018-11-06T19:37:14.955Z,25.17
2018-11-06T19:42:13.709Z,37.27
2018-11-06T19:47:12.431Z,24.87
2018-11-06T19:52:11.124Z,27.80
2018-11-06T19:57:09.919Z,25.73
2018-11-06T20:02:08.908Z,23.40
2018-11-06T20:07:07.612Z,28.30
2018-11-06T20:12:06.393Z,28.27
2018-11-06T20:17:05.118Z,21.20
2018-11-06T20:22:03.848Z,27.47
2018-11-06T20:27:02.672Z,27.20
2018-11-06T20:32:01.336Z,25.80
2018-11-06T20:37:00.069Z,27.07
2018-11-06T20:41:58.795Z,29.47
2018-11-06T20:46:57.520Z,30.93
2018-11-06T20:51:56.261Z,25.90
2018-11-06T20:56:54.998Z,27.83
2018-11-06T21:01:53.787Z,30.17
2018-11-06T21:06:52.530Z,19.43
2018-11-06T21:11:51.351Z,26.07
2018-11-06T21:16:50.089Z,24.67
2018-11-06T21:21:48.929Z,28.60
2018-11-06T21:26:47.817Z,28.50
2018-11-06T21:31:46.517Z,29.07
2018-11-06T21:36:45.259Z,23.80
2018-11-06T21:41:44.052Z,23.00
2018-11-06T21:46:42.844Z,26.77
2018-11-06T21:51:41.616Z,26.00
2018-11-06T21:56:40.341Z,27.43
2018-11-06T22:01:39.076Z,26.27
2018-11-06T22:06:37.978Z,27.07
2018-11-06T22:11:36.764Z,26.13
2018-11-06T22:16:35.513Z,24.60
2018-11-06T22:21:34.336Z,27.30
2018-11-06T22:26:33.044Z,25.90
2018-11-06T22:31:31.845Z,27.77
2018-11-06T22:36:30.592Z,26.70
2018-11-06T22:41:29.300Z,24.43
2018-11-06T22:46:28.024Z,19.07
2018-11-06T22:51:26.796Z,25.00
2018-11-06T22:56:25.527Z,23.90
2018-11-06T23:01:25.157Z,22.40
2018-11-06T23:06:25.060Z,24.13
2018-11-06T23:11:23.755Z,19.70
2018-11-06T23:16:22.474Z,21.97
2018-11-06T23:21:21.180Z,22.50
2018-11-06T23:26:19.924Z,16.60
2018-11-06T23:31:18.687Z,22.53
2018-11-06T23:36:17.445Z,14.67
2018-11-06T23:41:16.163Z,22.97
2018-11-06T23:46:14.980Z,19.30
2018-11-06T23:51:13.717Z,22.73
2018-11-06T23:56:12.556Z,19.53
